sensor_id;sensor_type;location;lat;lon;timestamp;P1;P2;P0
75946;PMS5003;64628;50.104;14.614;2023-08-06T00:02:19;57;55;
75946;PMS5003;64628;50.104;14.614;2023-08-06T00:04:45;56;56;
75946;PMS5003;64628;50.104;14.614;2023-08-06T00:07:10;48;48;
75946;PMS5003;64628;50.104;14.614;2023-08-06T00:09:35;64;62;
75946;PMS5003;64628;50.104;14.614;2023-08-06T00:12:01;33;32;
75946;PMS5003;64628;50.104;14.614;2023-08-06T00:14:26;69;69;
75946;PMS5003;64628;50.104;14.614;2023-08-06T00:16:51;52;50;
75946;PMS5003;64628;50.104;14.614;2023-08-06T00:19:16;67;67;
75946;PMS5003;64628;50.104;14.614;2023-08-06T00:21:42;113;111;
75946;PMS5003;64628;50.104;14.614;2023-08-06T00:24:07;57;57;
75946;PMS5003;64628;50.104;14.614;2023-08-06T00:26:33;141;140;
75946;PMS5003;64628;50.104;14.614;2023-08-06T00:28:58;144;143;
75946;PMS5003;64628;50.104;14.614;2023-08-06T00:31:23;90;90;
75946;PMS5003;64628;50.104;14.614;2023-08-06T00:33:49;45;44;
75946;PMS5003;64628;50.104;14.614;2023-08-06T00:36:15;94;92;
75946;PMS5003;64628;50.104;14.614;2023-08-06T00:38:40;105;102;
75946;PMS5003;64628;50.104;14.614;2023-08-06T00:41:05;116;113;
75946;PMS5003;64628;50.104;14.614;2023-08-06T00:43:30;108;108;
75946;PMS5003;64628;50.104;14.614;2023-08-06T00:45:56;65;63;
75946;PMS5003;64628;50.104;14.614;2023-08-06T00:48:22;63;61;
75946;PMS5003;64628;50.104;14.614;2023-08-06T00:50:48;64;63;
75946;PMS5003;64628;50.104;14.614;2023-08-06T00:53:13;74;70;
75946;PMS5003;64628;50.104;14.614;2023-08-06T00:55:38;91;86;
75946;PMS5003;64628;50.104;14.614;2023-08-06T00:58:03;53;53;
75946;PMS5003;64628;50.104;14.614;2023-08-06T01:00:29;80;79;
75946;PMS5003;64628;50.104;14.614;2023-08-06T01:02:54;72;68;
75946;PMS5003;64628;50.104;14.614;2023-08-06T01:05:20;60;58;
75946;PMS5003;64628;50.104;14.614;2023-08-06T01:07:49;57;57;
75946;PMS5003;64628;50.104;14.614;2023-08-06T01:10:16;44;44;
75946;PMS5003;64628;50.104;14.614;2023-08-06T01:12:38;52;52;
75946;PMS5003;64628;50.104;14.614;2023-08-06T01:15:02;52;51;
75946;PMS5003;64628;50.104;14.614;2023-08-06T01:17:27;52;48;
75946;PMS5003;64628;50.104;14.614;2023-08-06T01:19:52;51;51;
75946;PMS5003;64628;50.104;14.614;2023-08-06T01:22:17;69;69;
75946;PMS5003;64628;50.104;14.614;2023-08-06T01:24:43;56;56;
75946;PMS5003;64628;50.104;14.614;2023-08-06T01:27:08;50;50;
75946;PMS5003;64628;50.104;14.614;2023-08-06T01:29:35;52;51;
75946;PMS5003;64628;50.104;14.614;2023-08-06T01:31:58;50;48;
75946;PMS5003;64628;50.104;14.614;2023-08-06T01:34:25;56;56;
75946;PMS5003;64628;50.104;14.614;2023-08-06T01:36:50;47;46;
75946;PMS5003;64628;50.104;14.614;2023-08-06T01:39:15;44;42;
75946;PMS5003;64628;50.104;14.614;2023-08-06T01:41:40;65;60;
75946;PMS5003;64628;50.104;14.614;2023-08-06T01:44:05;50;50;
75946;PMS5003;64628;50.104;14.614;2023-08-06T01:46:30;45;44;
75946;PMS5003;64628;50.104;14.614;2023-08-06T01:48:56;48;45;
75946;PMS5003;64628;50.104;14.614;2023-08-06T01:51:21;35;35;
75946;PMS5003;64628;50.104;14.614;2023-08-06T01:53:47;43;41;
75946;PMS5003;64628;50.104;14.614;2023-08-06T01:56:12;42;42;
75946;PMS5003;64628;50.104;14.614;2023-08-06T01:58:37;37;36;
75946;PMS5003;64628;50.104;14.614;2023-08-06T02:01:03;40;40;
75946;PMS5003;64628;50.104;14.614;2023-08-06T02:03:28;41;38;
75946;PMS5003;64628;50.104;14.614;2023-08-06T02:05:53;34;34;
75946;PMS5003;64628;50.104;14.614;2023-08-06T02:08:18;36;36;
75946;PMS5003;64628;50.104;14.614;2023-08-06T02:10:44;47;47;
75946;PMS5003;64628;50.104;14.614;2023-08-06T02:13:10;40;36;
75946;PMS5003;64628;50.104;14.614;2023-08-06T02:15:35;52;52;
75946;PMS5003;64628;50.104;14.614;2023-08-06T02:18:01;45;40;
75946;PMS5003;64628;50.104;14.614;2023-08-06T02:20:26;40;40;
75946;PMS5003;64628;50.104;14.614;2023-08-06T02:22:51;44;42;
75946;PMS5003;64628;50.104;14.614;2023-08-06T02:25:17;43;41;
75946;PMS5003;64628;50.104;14.614;2023-08-06T02:27:42;49;49;
75946;PMS5003;64628;50.104;14.614;2023-08-06T02:30:07;39;38;
75946;PMS5003;64628;50.104;14.614;2023-08-06T02:32:33;38;37;
75946;PMS5003;64628;50.104;14.614;2023-08-06T02:34:58;37;37;
75946;PMS5003;64628;50.104;14.614;2023-08-06T02:37:24;33;33;
75946;PMS5003;64628;50.104;14.614;2023-08-06T02:39:49;48;47;
75946;PMS5003;64628;50.104;14.614;2023-08-06T02:42:15;33;33;
75946;PMS5003;64628;50.104;14.614;2023-08-06T02:44:40;33;32;
75946;PMS5003;64628;50.104;14.614;2023-08-06T02:47:06;41;39;
75946;PMS5003;64628;50.104;14.614;2023-08-06T02:49:31;37;36;
75946;PMS5003;64628;50.104;14.614;2023-08-06T02:51:57;38;35;
75946;PMS5003;64628;50.104;14.614;2023-08-06T02:54:22;45;43;
75946;PMS5003;64628;50.104;14.614;2023-08-06T02:56:48;38;38;
75946;PMS5003;64628;50.104;14.614;2023-08-06T02:59:13;43;43;
75946;PMS5003;64628;50.104;14.614;2023-08-06T03:01:39;33;32;
75946;PMS5003;64628;50.104;14.614;2023-08-06T03:04:04;38;35;
75946;PMS5003;64628;50.104;14.614;2023-08-06T03:06:29;36;36;
75946;PMS5003;64628;50.104;14.614;2023-08-06T03:08:54;47;47;
75946;PMS5003;64628;50.104;14.614;2023-08-06T03:11:19;45;44;
75946;PMS5003;64628;50.104;14.614;2023-08-06T03:13:44;43;43;
75946;PMS5003;64628;50.104;14.614;2023-08-06T03:16:09;47;46;
75946;PMS5003;64628;50.104;14.614;2023-08-06T03:18:35;43;43;
75946;PMS5003;64628;50.104;14.614;2023-08-06T03:21:00;48;46;
75946;PMS5003;64628;50.104;14.614;2023-08-06T03:23:25;42;41;
75946;PMS5003;64628;50.104;14.614;2023-08-06T03:25:50;34;33;
75946;PMS5003;64628;50.104;14.614;2023-08-06T03:28:16;45;44;
75946;PMS5003;64628;50.104;14.614;2023-08-06T03:30:41;28;28;
75946;PMS5003;64628;50.104;14.614;2023-08-06T03:33:07;36;35;
75946;PMS5003;64628;50.104;14.614;2023-08-06T03:35:32;43;42;
75946;PMS5003;64628;50.104;14.614;2023-08-06T03:37:58;43;40;
75946;PMS5003;64628;50.104;14.614;2023-08-06T03:40:23;35;35;
75946;PMS5003;64628;50.104;14.614;2023-08-06T03:42:49;39;39;
75946;PMS5003;64628;50.104;14.614;2023-08-06T03:45:14;45;45;
75946;PMS5003;64628;50.104;14.614;2023-08-06T03:47:40;36;35;
75946;PMS5003;64628;50.104;14.614;2023-08-06T03:50:06;39;35;
75946;PMS5003;64628;50.104;14.614;2023-08-06T03:52:31;36;34;
75946;PMS5003;64628;50.104;14.614;2023-08-06T03:54:57;33;33;
75946;PMS5003;64628;50.104;14.614;2023-08-06T03:57:23;38;37;
75946;PMS5003;64628;50.104;14.614;2023-08-06T03:59:48;34;33;
75946;PMS5003;64628;50.104;14.614;2023-08-06T04:02:14;35;34;
75946;PMS5003;64628;50.104;14.614;2023-08-06T04:04:39;42;41;
75946;PMS5003;64628;50.104;14.614;2023-08-06T04:07:05;33;33;
75946;PMS5003;64628;50.104;14.614;2023-08-06T04:09:31;38;37;
75946;PMS5003;64628;50.104;14.614;2023-08-06T04:11:56;38;34;
75946;PMS5003;64628;50.104;14.614;2023-08-06T04:14:21;35;34;
75946;PMS5003;64628;50.104;14.614;2023-08-06T04:16:47;30;30;
75946;PMS5003;64628;50.104;14.614;2023-08-06T04:19:13;39;39;
75946;PMS5003;64628;50.104;14.614;2023-08-06T04:21:38;38;38;
75946;PMS5003;64628;50.104;14.614;2023-08-06T04:24:04;34;32;
75946;PMS5003;64628;50.104;14.614;2023-08-06T04:26:30;27;26;
75946;PMS5003;64628;50.104;14.614;2023-08-06T04:28:56;30;28;
75946;PMS5003;64628;50.104;14.614;2023-08-06T04:31:21;26;26;
75946;PMS5003;64628;50.104;14.614;2023-08-06T04:33:47;37;37;
75946;PMS5003;64628;50.104;14.614;2023-08-06T04:36:13;27;27;
75946;PMS5003;64628;50.104;14.614;2023-08-06T04:38:38;25;25;
75946;PMS5003;64628;50.104;14.614;2023-08-06T04:41:04;37;37;
75946;PMS5003;64628;50.104;14.614;2023-08-06T04:43:30;27;27;
75946;PMS5003;64628;50.104;14.614;2023-08-06T04:45:55;26;26;
75946;PMS5003;64628;50.104;14.614;2023-08-06T04:48:20;31;28;
75946;PMS5003;64628;50.104;14.614;2023-08-06T04:50:46;35;33;
75946;PMS5003;64628;50.104;14.614;2023-08-06T04:53:11;29;29;
75946;PMS5003;64628;50.104;14.614;2023-08-06T04:55:36;40;40;
75946;PMS5003;64628;50.104;14.614;2023-08-06T04:58:01;37;36;
75946;PMS5003;64628;50.104;14.614;2023-08-06T05:00:27;22;22;
75946;PMS5003;64628;50.104;14.614;2023-08-06T05:02:53;34;34;
75946;PMS5003;64628;50.104;14.614;2023-08-06T05:05:18;37;37;
75946;PMS5003;64628;50.104;14.614;2023-08-06T05:07:45;29;28;
75946;PMS5003;64628;50.104;14.614;2023-08-06T05:10:09;24;24;
75946;PMS5003;64628;50.104;14.614;2023-08-06T05:12:36;43;43;
75946;PMS5003;64628;50.104;14.614;2023-08-06T05:15:01;29;28;
75946;PMS5003;64628;50.104;14.614;2023-08-06T05:17:27;35;35;
75946;PMS5003;64628;50.104;14.614;2023-08-06T05:19:51;41;41;
75946;PMS5003;64628;50.104;14.614;2023-08-06T05:22:17;26;25;
75946;PMS5003;64628;50.104;14.614;2023-08-06T05:24:43;31;31;
75946;PMS5003;64628;50.104;14.614;2023-08-06T05:27:08;25;25;
75946;PMS5003;64628;50.104;14.614;2023-08-06T05:29:33;31;31;
75946;PMS5003;64628;50.104;14.614;2023-08-06T05:31:58;22;22;
75946;PMS5003;64628;50.104;14.614;2023-08-06T05:34:24;41;40;
75946;PMS5003;64628;50.104;14.614;2023-08-06T05:36:49;40;39;
75946;PMS5003;64628;50.104;14.614;2023-08-06T05:39:15;30;29;
75946;PMS5003;64628;50.104;14.614;2023-08-06T05:41:40;25;25;
75946;PMS5003;64628;50.104;14.614;2023-08-06T05:44:05;23;23;
75946;PMS5003;64628;50.104;14.614;2023-08-06T05:46:30;28;25;
75946;PMS5003;64628;50.104;14.614;2023-08-06T05:48:56;37;37;
75946;PMS5003;64628;50.104;14.614;2023-08-06T05:51:22;33;32;
75946;PMS5003;64628;50.104;14.614;2023-08-06T05:53:47;13;13;
75946;PMS5003;64628;50.104;14.614;2023-08-06T05:56:12;16;15;
75946;PMS5003;64628;50.104;14.614;2023-08-06T05:58:41;39;38;
75946;PMS5003;64628;50.104;14.614;2023-08-06T06:01:02;14;12;
75946;PMS5003;64628;50.104;14.614;2023-08-06T06:03:27;14;14;
75946;PMS5003;64628;50.104;14.614;2023-08-06T06:05:53;15;15;
75946;PMS5003;64628;50.104;14.614;2023-08-06T06:08:18;13;12;
75946;PMS5003;64628;50.104;14.614;2023-08-06T06:10:43;33;33;
75946;PMS5003;64628;50.104;14.614;2023-08-06T06:13:08;14;13;
75946;PMS5003;64628;50.104;14.614;2023-08-06T06:15:34;12;9;
75946;PMS5003;64628;50.104;14.614;2023-08-06T06:17:59;12;11;
75946;PMS5003;64628;50.104;14.614;2023-08-06T06:20:24;14;12;
75946;PMS5003;64628;50.104;14.614;2023-08-06T06:22:49;12;12;
75946;PMS5003;64628;50.104;14.614;2023-08-06T06:25:15;10;10;
75946;PMS5003;64628;50.104;14.614;2023-08-06T06:27:40;12;10;
75946;PMS5003;64628;50.104;14.614;2023-08-06T06:30:05;11;10;
75946;PMS5003;64628;50.104;14.614;2023-08-06T06:32:30;17;13;
75946;PMS5003;64628;50.104;14.614;2023-08-06T06:34:55;12;9;
75946;PMS5003;64628;50.104;14.614;2023-08-06T06:37:21;9;9;
75946;PMS5003;64628;50.104;14.614;2023-08-06T06:39:46;26;22;
75946;PMS5003;64628;50.104;14.614;2023-08-06T06:42:11;14;13;
75946;PMS5003;64628;50.104;14.614;2023-08-06T06:44:36;8;8;
75946;PMS5003;64628;50.104;14.614;2023-08-06T06:47:01;27;25;
75946;PMS5003;64628;50.104;14.614;2023-08-06T06:49:26;11;11;
75946;PMS5003;64628;50.104;14.614;2023-08-06T06:51:52;10;7;
75946;PMS5003;64628;50.104;14.614;2023-08-06T06:54:17;8;8;
75946;PMS5003;64628;50.104;14.614;2023-08-06T06:56:42;9;9;
75946;PMS5003;64628;50.104;14.614;2023-08-06T06:59:07;16;15;
75946;PMS5003;64628;50.104;14.614;2023-08-06T07:01:33;18;17;
75946;PMS5003;64628;50.104;14.614;2023-08-06T07:03:58;22;22;
75946;PMS5003;64628;50.104;14.614;2023-08-06T07:06:23;32;30;
75946;PMS5003;64628;50.104;14.614;2023-08-06T07:08:49;32;30;
75946;PMS5003;64628;50.104;14.614;2023-08-06T07:11:15;22;22;
75946;PMS5003;64628;50.104;14.614;2023-08-06T07:13:40;16;16;
75946;PMS5003;64628;50.104;14.614;2023-08-06T07:16:06;35;34;
75946;PMS5003;64628;50.104;14.614;2023-08-06T07:18:31;20;19;
75946;PMS5003;64628;50.104;14.614;2023-08-06T07:20:57;15;15;
75946;PMS5003;64628;50.104;14.614;2023-08-06T07:23:23;34;34;
75946;PMS5003;64628;50.104;14.614;2023-08-06T07:25:47;34;33;
75946;PMS5003;64628;50.104;14.614;2023-08-06T07:28:13;13;13;
75946;PMS5003;64628;50.104;14.614;2023-08-06T07:30:38;33;33;
75946;PMS5003;64628;50.104;14.614;2023-08-06T07:33:04;21;18;
75946;PMS5003;64628;50.104;14.614;2023-08-06T07:35:29;32;31;
75946;PMS5003;64628;50.104;14.614;2023-08-06T07:37:55;38;38;
75946;PMS5003;64628;50.104;14.614;2023-08-06T07:40:20;16;14;
75946;PMS5003;64628;50.104;14.614;2023-08-06T07:42:45;26;26;
75946;PMS5003;64628;50.104;14.614;2023-08-06T07:45:11;36;33;
75946;PMS5003;64628;50.104;14.614;2023-08-06T07:47:36;16;15;
75946;PMS5003;64628;50.104;14.614;2023-08-06T07:50:02;23;23;
75946;PMS5003;64628;50.104;14.614;2023-08-06T07:52:27;24;24;
75946;PMS5003;64628;50.104;14.614;2023-08-06T07:54:52;14;14;
75946;PMS5003;64628;50.104;14.614;2023-08-06T07:57:18;17;15;
75946;PMS5003;64628;50.104;14.614;2023-08-06T07:59:44;24;18;
75946;PMS5003;64628;50.104;14.614;2023-08-06T08:02:09;19;16;
75946;PMS5003;64628;50.104;14.614;2023-08-06T08:04:35;23;22;
75946;PMS5003;64628;50.104;14.614;2023-08-06T08:07:02;15;15;
75946;PMS5003;64628;50.104;14.614;2023-08-06T08:09:26;32;30;
75946;PMS5003;64628;50.104;14.614;2023-08-06T08:11:51;31;30;
75946;PMS5003;64628;50.104;14.614;2023-08-06T08:14:17;15;15;
75946;PMS5003;64628;50.104;14.614;2023-08-06T08:16:42;15;15;
75946;PMS5003;64628;50.104;14.614;2023-08-06T08:19:08;15;14;
75946;PMS5003;64628;50.104;14.614;2023-08-06T08:21:34;16;15;
75946;PMS5003;64628;50.104;14.614;2023-08-06T08:23:59;16;16;
75946;PMS5003;64628;50.104;14.614;2023-08-06T08:26:25;15;15;
75946;PMS5003;64628;50.104;14.614;2023-08-06T08:28:50;22;18;
75946;PMS5003;64628;50.104;14.614;2023-08-06T08:31:16;24;21;
75946;PMS5003;64628;50.104;14.614;2023-08-06T08:33:41;24;21;
75946;PMS5003;64628;50.104;14.614;2023-08-06T08:36:07;20;20;
75946;PMS5003;64628;50.104;14.614;2023-08-06T08:38:32;18;18;
75946;PMS5003;64628;50.104;14.614;2023-08-06T08:40:58;21;20;
75946;PMS5003;64628;50.104;14.614;2023-08-06T08:43:24;20;18;
75946;PMS5003;64628;50.104;14.614;2023-08-06T08:45:50;27;27;
75946;PMS5003;64628;50.104;14.614;2023-08-06T08:48:14;31;26;
75946;PMS5003;64628;50.104;14.614;2023-08-06T08:50:39;38;34;
75946;PMS5003;64628;50.104;14.614;2023-08-06T08:53:05;34;31;
75946;PMS5003;64628;50.104;14.614;2023-08-06T08:55:30;30;29;
75946;PMS5003;64628;50.104;14.614;2023-08-06T08:57:55;37;32;
75946;PMS5003;64628;50.104;14.614;2023-08-06T09:00:21;26;21;
75946;PMS5003;64628;50.104;14.614;2023-08-06T09:02:46;28;26;
75946;PMS5003;64628;50.104;14.614;2023-08-06T09:05:12;35;33;
75946;PMS5003;64628;50.104;14.614;2023-08-06T09:07:39;37;30;
75946;PMS5003;64628;50.104;14.614;2023-08-06T09:10:03;25;23;
75946;PMS5003;64628;50.104;14.614;2023-08-06T09:12:28;26;21;
75946;PMS5003;64628;50.104;14.614;2023-08-06T09:14:53;28;28;
75946;PMS5003;64628;50.104;14.614;2023-08-06T09:17:18;29;28;
75946;PMS5003;64628;50.104;14.614;2023-08-06T09:19:44;22;18;
75946;PMS5003;64628;50.104;14.614;2023-08-06T09:22:10;21;20;
75946;PMS5003;64628;50.104;14.614;2023-08-06T09:24:35;16;16;
75946;PMS5003;64628;50.104;14.614;2023-08-06T09:27:01;19;18;
75946;PMS5003;64628;50.104;14.614;2023-08-06T09:29:25;19;17;
75946;PMS5003;64628;50.104;14.614;2023-08-06T09:31:55;19;17;
75946;PMS5003;64628;50.104;14.614;2023-08-06T09:34:17;20;19;
75946;PMS5003;64628;50.104;14.614;2023-08-06T09:36:41;15;15;
75946;PMS5003;64628;50.104;14.614;2023-08-06T09:41:31;18;17;
75946;PMS5003;64628;50.104;14.614;2023-08-06T09:43:56;15;15;
75946;PMS5003;64628;50.104;14.614;2023-08-06T09:46:22;15;15;
75946;PMS5003;64628;50.104;14.614;2023-08-06T09:48:48;17;15;
75946;PMS5003;64628;50.104;14.614;2023-08-06T09:51:13;12;12;
75946;PMS5003;64628;50.104;14.614;2023-08-06T09:53:38;16;14;
75946;PMS5003;64628;50.104;14.614;2023-08-06T09:56:03;11;11;
75946;PMS5003;64628;50.104;14.614;2023-08-06T09:58:29;13;12;
75946;PMS5003;64628;50.104;14.614;2023-08-06T10:00:54;13;13;
75946;PMS5003;64628;50.104;14.614;2023-08-06T10:03:19;10;8;
75946;PMS5003;64628;50.104;14.614;2023-08-06T10:05:44;12;12;
75946;PMS5003;64628;50.104;14.614;2023-08-06T10:08:09;12;12;
75946;PMS5003;64628;50.104;14.614;2023-08-06T10:10:34;11;10;
75946;PMS5003;64628;50.104;14.614;2023-08-06T10:12:59;9;9;
75946;PMS5003;64628;50.104;14.614;2023-08-06T10:15:26;13;12;
75946;PMS5003;64628;50.104;14.614;2023-08-06T10:17:51;13;13;
75946;PMS5003;64628;50.104;14.614;2023-08-06T10:20:15;10;10;
75946;PMS5003;64628;50.104;14.614;2023-08-06T10:22:42;10;10;
75946;PMS5003;64628;50.104;14.614;2023-08-06T10:25:06;14;13;
75946;PMS5003;64628;50.104;14.614;2023-08-06T10:27:33;12;10;
75946;PMS5003;64628;50.104;14.614;2023-08-06T10:29:56;14;12;
75946;PMS5003;64628;50.104;14.614;2023-08-06T10:32:23;15;14;
75946;PMS5003;64628;50.104;14.614;2023-08-06T10:34:53;12;12;
75946;PMS5003;64628;50.104;14.614;2023-08-06T10:37:12;14;13;
75946;PMS5003;64628;50.104;14.614;2023-08-06T10:39:37;14;13;
75946;PMS5003;64628;50.104;14.614;2023-08-06T10:42:02;13;13;
75946;PMS5003;64628;50.104;14.614;2023-08-06T10:44:27;12;12;
75946;PMS5003;64628;50.104;14.614;2023-08-06T10:46:52;18;15;
75946;PMS5003;64628;50.104;14.614;2023-08-06T10:49:17;9;9;
75946;PMS5003;64628;50.104;14.614;2023-08-06T10:51:43;12;11;
75946;PMS5003;64628;50.104;14.614;2023-08-06T10:54:08;12;12;
75946;PMS5003;64628;50.104;14.614;2023-08-06T10:56:39;11;11;
75946;PMS5003;64628;50.104;14.614;2023-08-06T10:58:58;9;9;
75946;PMS5003;64628;50.104;14.614;2023-08-06T11:01:23;10;10;
75946;PMS5003;64628;50.104;14.614;2023-08-06T11:03:50;10;10;
75946;PMS5003;64628;50.104;14.614;2023-08-06T11:08:40;14;11;
75946;PMS5003;64628;50.104;14.614;2023-08-06T11:11:08;13;11;
75946;PMS5003;64628;50.104;14.614;2023-08-06T11:13:30;12;12;
75946;PMS5003;64628;50.104;14.614;2023-08-06T11:15:55;11;10;
75946;PMS5003;64628;50.104;14.614;2023-08-06T11:18:20;12;11;
75946;PMS5003;64628;50.104;14.614;2023-08-06T11:20:45;10;10;
75946;PMS5003;64628;50.104;14.614;2023-08-06T11:23:11;12;11;
75946;PMS5003;64628;50.104;14.614;2023-08-06T11:25:36;11;10;
75946;PMS5003;64628;50.104;14.614;2023-08-06T11:28:01;10;10;
75946;PMS5003;64628;50.104;14.614;2023-08-06T11:30:26;12;11;
75946;PMS5003;64628;50.104;14.614;2023-08-06T11:32:51;11;9;
75946;PMS5003;64628;50.104;14.614;2023-08-06T11:35:16;11;8;
75946;PMS5003;64628;50.104;14.614;2023-08-06T11:37:43;7;7;
75946;PMS5003;64628;50.104;14.614;2023-08-06T11:40:08;9;8;
75946;PMS5003;64628;50.104;14.614;2023-08-06T11:42:32;8;7;
75946;PMS5003;64628;50.104;14.614;2023-08-06T11:44:57;9;9;
75946;PMS5003;64628;50.104;14.614;2023-08-06T11:47:22;9;8;
75946;PMS5003;64628;50.104;14.614;2023-08-06T11:49:48;6;6;
75946;PMS5003;64628;50.104;14.614;2023-08-06T11:52:14;7;7;
75946;PMS5003;64628;50.104;14.614;2023-08-06T11:54:37;10;10;
75946;PMS5003;64628;50.104;14.614;2023-08-06T11:57:03;7;7;
75946;PMS5003;64628;50.104;14.614;2023-08-06T11:59:28;7;7;
75946;PMS5003;64628;50.104;14.614;2023-08-06T12:01:53;9;7;
75946;PMS5003;64628;50.104;14.614;2023-08-06T12:04:18;9;8;
75946;PMS5003;64628;50.104;14.614;2023-08-06T12:06:43;7;7;
75946;PMS5003;64628;50.104;14.614;2023-08-06T12:09:13;4;4;
75946;PMS5003;64628;50.104;14.614;2023-08-06T12:11:33;4;4;
75946;PMS5003;64628;50.104;14.614;2023-08-06T12:13:58;6;5;
75946;PMS5003;64628;50.104;14.614;2023-08-06T12:16:23;6;6;
75946;PMS5003;64628;50.104;14.614;2023-08-06T12:18:48;8;7;
75946;PMS5003;64628;50.104;14.614;2023-08-06T12:21:18;8;7;
75946;PMS5003;64628;50.104;14.614;2023-08-06T12:23:38;9;9;
75946;PMS5003;64628;50.104;14.614;2023-08-06T12:26:03;7;7;
75946;PMS5003;64628;50.104;14.614;2023-08-06T12:28:28;8;7;
75946;PMS5003;64628;50.104;14.614;2023-08-06T12:30:53;7;7;
75946;PMS5003;64628;50.104;14.614;2023-08-06T12:33:18;8;8;
75946;PMS5003;64628;50.104;14.614;2023-08-06T12:35:43;8;8;
75946;PMS5003;64628;50.104;14.614;2023-08-06T12:38:08;8;8;
75946;PMS5003;64628;50.104;14.614;2023-08-06T12:40:33;10;10;
75946;PMS5003;64628;50.104;14.614;2023-08-06T12:42:58;6;6;
75946;PMS5003;64628;50.104;14.614;2023-08-06T12:45:23;10;8;
75946;PMS5003;64628;50.104;14.614;2023-08-06T12:47:48;8;7;
75946;PMS5003;64628;50.104;14.614;2023-08-06T12:50:15;6;6;
75946;PMS5003;64628;50.104;14.614;2023-08-06T12:52:38;9;9;
75946;PMS5003;64628;50.104;14.614;2023-08-06T12:55:04;7;7;
75946;PMS5003;64628;50.104;14.614;2023-08-06T12:57:29;9;9;
75946;PMS5003;64628;50.104;14.614;2023-08-06T12:59:54;10;9;
75946;PMS5003;64628;50.104;14.614;2023-08-06T13:02:19;8;8;
75946;PMS5003;64628;50.104;14.614;2023-08-06T13:04:45;12;9;
75946;PMS5003;64628;50.104;14.614;2023-08-06T13:07:09;11;11;
75946;PMS5003;64628;50.104;14.614;2023-08-06T13:09:34;10;10;
75946;PMS5003;64628;50.104;14.614;2023-08-06T13:12:00;16;13;
75946;PMS5003;64628;50.104;14.614;2023-08-06T13:14:25;11;11;
75946;PMS5003;64628;50.104;14.614;2023-08-06T13:16:50;9;9;
75946;PMS5003;64628;50.104;14.614;2023-08-06T13:19:15;9;9;
75946;PMS5003;64628;50.104;14.614;2023-08-06T13:24:05;8;8;
75946;PMS5003;64628;50.104;14.614;2023-08-06T13:26:31;15;12;
75946;PMS5003;64628;50.104;14.614;2023-08-06T13:28:56;12;11;
75946;PMS5003;64628;50.104;14.614;2023-08-06T13:31:21;11;11;
75946;PMS5003;64628;50.104;14.614;2023-08-06T13:33:46;12;12;
75946;PMS5003;64628;50.104;14.614;2023-08-06T13:36:12;12;12;
75946;PMS5003;64628;50.104;14.614;2023-08-06T13:38:37;13;13;
75946;PMS5003;64628;50.104;14.614;2023-08-06T13:41:02;9;9;
75946;PMS5003;64628;50.104;14.614;2023-08-06T13:43:27;11;10;
75946;PMS5003;64628;50.104;14.614;2023-08-06T13:45:53;10;10;
75946;PMS5003;64628;50.104;14.614;2023-08-06T13:48:18;12;11;
75946;PMS5003;64628;50.104;14.614;2023-08-06T13:50:43;15;15;
75946;PMS5003;64628;50.104;14.614;2023-08-06T13:53:09;11;10;
75946;PMS5003;64628;50.104;14.614;2023-08-06T13:55:34;11;11;
75946;PMS5003;64628;50.104;14.614;2023-08-06T13:57:59;10;10;
75946;PMS5003;64628;50.104;14.614;2023-08-06T14:00:24;11;10;
75946;PMS5003;64628;50.104;14.614;2023-08-06T14:02:49;12;10;
75946;PMS5003;64628;50.104;14.614;2023-08-06T14:05:15;11;10;
75946;PMS5003;64628;50.104;14.614;2023-08-06T14:07:40;14;12;
75946;PMS5003;64628;50.104;14.614;2023-08-06T14:10:06;13;11;
75946;PMS5003;64628;50.104;14.614;2023-08-06T14:12:30;14;11;
75946;PMS5003;64628;50.104;14.614;2023-08-06T14:14:55;9;9;
75946;PMS5003;64628;50.104;14.614;2023-08-06T14:17:20;8;7;
75946;PMS5003;64628;50.104;14.614;2023-08-06T14:19:45;12;9;
75946;PMS5003;64628;50.104;14.614;2023-08-06T14:22:10;8;7;
75946;PMS5003;64628;50.104;14.614;2023-08-06T14:24:35;9;8;
75946;PMS5003;64628;50.104;14.614;2023-08-06T14:27:00;9;9;
75946;PMS5003;64628;50.104;14.614;2023-08-06T14:29:26;7;7;
75946;PMS5003;64628;50.104;14.614;2023-08-06T14:31:50;12;10;
75946;PMS5003;64628;50.104;14.614;2023-08-06T14:34:15;7;7;
75946;PMS5003;64628;50.104;14.614;2023-08-06T14:36:41;11;10;
75946;PMS5003;64628;50.104;14.614;2023-08-06T14:39:06;9;8;
75946;PMS5003;64628;50.104;14.614;2023-08-06T14:41:31;9;9;
75946;PMS5003;64628;50.104;14.614;2023-08-06T14:43:56;11;10;
75946;PMS5003;64628;50.104;14.614;2023-08-06T14:46:21;9;8;
75946;PMS5003;64628;50.104;14.614;2023-08-06T14:48:46;7;7;
75946;PMS5003;64628;50.104;14.614;2023-08-06T14:51:11;8;8;
75946;PMS5003;64628;50.104;14.614;2023-08-06T14:53:36;9;8;
75946;PMS5003;64628;50.104;14.614;2023-08-06T14:56:01;8;7;
75946;PMS5003;64628;50.104;14.614;2023-08-06T14:58:26;7;7;
75946;PMS5003;64628;50.104;14.614;2023-08-06T15:00:52;8;8;
75946;PMS5003;64628;50.104;14.614;2023-08-06T15:03:18;7;7;
75946;PMS5003;64628;50.104;14.614;2023-08-06T15:05:43;9;9;
75946;PMS5003;64628;50.104;14.614;2023-08-06T15:08:08;8;7;
75946;PMS5003;64628;50.104;14.614;2023-08-06T15:10:33;7;7;
75946;PMS5003;64628;50.104;14.614;2023-08-06T15:12:58;11;8;
75946;PMS5003;64628;50.104;14.614;2023-08-06T15:15:23;10;9;
75946;PMS5003;64628;50.104;14.614;2023-08-06T15:17:48;8;8;
75946;PMS5003;64628;50.104;14.614;2023-08-06T15:20:13;7;7;
75946;PMS5003;64628;50.104;14.614;2023-08-06T15:22:38;8;8;
75946;PMS5003;64628;50.104;14.614;2023-08-06T15:25:03;9;9;
75946;PMS5003;64628;50.104;14.614;2023-08-06T15:27:28;7;7;
75946;PMS5003;64628;50.104;14.614;2023-08-06T15:29:53;9;9;
75946;PMS5003;64628;50.104;14.614;2023-08-06T15:32:18;10;8;
75946;PMS5003;64628;50.104;14.614;2023-08-06T15:34:43;11;10;
75946;PMS5003;64628;50.104;14.614;2023-08-06T15:37:08;7;7;
75946;PMS5003;64628;50.104;14.614;2023-08-06T15:39:33;9;8;
75946;PMS5003;64628;50.104;14.614;2023-08-06T15:41:58;10;8;
75946;PMS5003;64628;50.104;14.614;2023-08-06T15:44:23;12;10;
75946;PMS5003;64628;50.104;14.614;2023-08-06T15:46:48;10;10;
75946;PMS5003;64628;50.104;14.614;2023-08-06T15:49:14;13;10;
75946;PMS5003;64628;50.104;14.614;2023-08-06T15:51:40;10;10;
75946;PMS5003;64628;50.104;14.614;2023-08-06T15:54:04;12;10;
75946;PMS5003;64628;50.104;14.614;2023-08-06T15:56:29;9;9;
75946;PMS5003;64628;50.104;14.614;2023-08-06T15:58:54;10;8;
75946;PMS5003;64628;50.104;14.614;2023-08-06T16:01:19;9;8;